sensor_id;sensor_type;location;lat;lon;timestamp;pressure;altitude;pressure_sealevel;temperature;humidity
20019;BME280;10170;42.502;26.526;2023-05-23T00:01:20;99252.25;;;14.28;100.00
20019;BME280;10170;42.502;26.526;2023-05-23T00:03:48;99246.16;;;14.33;100.00
20019;BME280;10170;42.502;26.526;2023-05-23T00:06:19;99250.16;;;14.30;100.00
20019;BME280;10170;42.502;26.526;2023-05-23T00:08:47;99249.09;;;14.20;100.00
20019;BME280;10170;42.502;26.526;2023-05-23T00:11:14;99248.09;;;14.09;100.00
20019;BME280;10170;42.502;26.526;2023-05-23T00:13:41;99251.66;;;14.15;100.00
20019;BME280;10170;42.502;26.526;2023-05-23T00:16:08;99258.31;;;14.12;100.00
20019;BME280;10170;42.502;26.526;2023-05-23T00:18:36;99258.94;;;14.03;100.00
20019;BME280;10170;42.502;26.526;2023-05-23T00:21:03;99262.94;;;13.77;100.00
20019;BME280;10170;42.502;26.526;2023-05-23T00:23:30;99266.69;;;13.64;100.00
20019;BME280;10170;42.502;26.526;2023-05-23T00:25:59;99249.75;;;13.47;100.00
20019;BME280;10170;42.502;26.526;2023-05-23T00:28:26;99263.06;;;13.59;100.00
20019;BME280;10170;42.502;26.526;2023-05-23T00:30:53;99257.97;;;13.57;100.00
20019;BME280;10170;42.502;26.526;2023-05-23T00:33:20;99253.31;;;13.64;100.00
20019;BME280;10170;42.502;26.526;2023-05-23T00:35:48;99253.91;;;13.66;100.00
20019;BME280;10170;42.502;26.526;2023-05-23T00:38:15;99249.28;;;13.62;100.00
20019;BME280;10170;42.502;26.526;2023-05-23T00:40:42;99251.59;;;13.58;100.00
20019;BME280;10170;42.502;26.526;2023-05-23T00:43:09;99243.69;;;13.63;100.00
20019;BME280;10170;42.502;26.526;2023-05-23T00:45:35;99246.84;;;13.60;100.00
20019;BME280;10170;42.502;26.526;2023-05-23T00:48:04;99250.06;;;13.62;100.00
20019;BME280;10170;42.502;26.526;2023-05-23T00:50:31;99240.19;;;13.63;100.00
20019;BME280;10170;42.502;26.526;2023-05-23T00:52:59;99240.78;;;13.53;100.00
20019;BME280;10170;42.502;26.526;2023-05-23T00:55:27;99241.84;;;13.64;100.00
20019;BME280;10170;42.502;26.526;2023-05-23T00:57:54;99225.31;;;13.67;100.00
20019;BME280;10170;42.502;26.526;2023-05-23T01:00:24;99227.09;;;13.50;100.00
20019;BME280;10170;42.502;26.526;2023-05-23T01:10:13;99225.00;;;13.52;100.00
20019;BME280;10170;42.502;26.526;2023-05-23T01:13:28;99228.38;;;13.36;100.00
20019;BME280;10170;42.502;26.526;2023-05-23T01:18:31;99223.28;;;13.34;100.00
20019;BME280;10170;42.502;26.526;2023-05-23T01:21:04;99232.59;;;13.20;100.00
20019;BME280;10170;42.502;26.526;2023-05-23T01:23:56;99230.84;;;13.03;100.00
20019;BME280;10170;42.502;26.526;2023-05-23T01:29:11;99229.09;;;13.08;100.00
20019;BME280;10170;42.502;26.526;2023-05-23T01:31:43;99219.56;;;13.01;100.00
20019;BME280;10170;42.502;26.526;2023-05-23T01:34:11;99220.03;;;13.09;100.00
20019;BME280;10170;42.502;26.526;2023-05-23T01:36:41;99211.44;;;12.96;100.00
20019;BME280;10170;42.502;26.526;2023-05-23T01:39:08;99217.50;;;13.03;100.00
20019;BME280;10170;42.502;26.526;2023-05-23T01:41:36;99218.31;;;13.15;100.00
20019;BME280;10170;42.502;26.526;2023-05-23T01:44:03;99215.81;;;13.02;100.00
20019;BME280;10170;42.502;26.526;2023-05-23T01:46:31;99209.84;;;13.06;100.00
20019;BME280;10170;42.502;26.526;2023-05-23T01:49:02;99216.91;;;13.12;100.00
20019;BME280;10170;42.502;26.526;2023-05-23T01:51:30;99217.38;;;13.21;100.00
20019;BME280;10170;42.502;26.526;2023-05-23T01:53:57;99212.97;;;13.15;100.00
20019;BME280;10170;42.502;26.526;2023-05-23T01:56:24;99216.47;;;13.15;100.00
20019;BME280;10170;42.502;26.526;2023-05-23T01:58:52;99222.47;;;13.11;100.00
20019;BME280;10170;42.502;26.526;2023-05-23T02:01:19;99222.69;;;12.98;100.00
20019;BME280;10170;42.502;26.526;2023-05-23T02:03:46;99232.53;;;12.97;100.00
20019;BME280;10170;42.502;26.526;2023-05-23T02:06:13;99224.88;;;13.01;100.00
20019;BME280;10170;42.502;26.526;2023-05-23T02:08:40;99224.69;;;13.14;100.00
20019;BME280;10170;42.502;26.526;2023-05-23T02:11:07;99233.69;;;12.90;100.00
20019;BME280;10170;42.502;26.526;2023-05-23T02:13:36;99236.19;;;13.03;100.00
20019;BME280;10170;42.502;26.526;2023-05-23T02:16:03;99231.66;;;13.15;100.00
20019;BME280;10170;42.502;26.526;2023-05-23T02:18:30;99229.34;;;13.30;100.00
20019;BME280;10170;42.502;26.526;2023-05-23T02:20:57;99227.81;;;13.34;100.00
20019;BME280;10170;42.502;26.526;2023-05-23T02:23:23;99232.22;;;13.40;100.00
20019;BME280;10170;42.502;26.526;2023-05-23T02:25:50;99230.59;;;13.39;100.00
20019;BME280;10170;42.502;26.526;2023-05-23T02:28:17;99236.84;;;13.44;100.00
20019;BME280;10170;42.502;26.526;2023-05-23T02:30:44;99219.78;;;13.45;100.00
20019;BME280;10170;42.502;26.526;2023-05-23T02:33:11;99233.25;;;13.50;100.00
20019;BME280;10170;42.502;26.526;2023-05-23T02:35:38;99234.63;;;13.64;100.00
20019;BME280;10170;42.502;26.526;2023-05-23T02:38:06;99235.75;;;13.80;100.00
20019;BME280;10170;42.502;26.526;2023-05-23T02:40:32;99234.50;;;13.71;100.00
20019;BME280;10170;42.502;26.526;2023-05-23T02:42:59;99234.03;;;13.62;100.00
20019;BME280;10170;42.502;26.526;2023-05-23T02:45:26;99237.59;;;13.80;100.00
20019;BME280;10170;42.502;26.526;2023-05-23T02:47:53;99225.19;;;13.73;100.00
20019;BME280;10170;42.502;26.526;2023-05-23T02:50:19;99235.88;;;13.73;100.00
20019;BME280;10170;42.502;26.526;2023-05-23T02:52:46;99235.94;;;13.90;100.00
20019;BME280;10170;42.502;26.526;2023-05-23T02:55:13;99231.53;;;13.84;100.00
20019;BME280;10170;42.502;26.526;2023-05-23T02:57:40;99247.00;;;13.82;100.00
20019;BME280;10170;42.502;26.526;2023-05-23T03:00:08;99249.56;;;13.77;100.00
20019;BME280;10170;42.502;26.526;2023-05-23T03:02:35;99243.28;;;13.83;100.00
20019;BME280;10170;42.502;26.526;2023-05-23T03:05:03;99246.78;;;13.84;100.00
20019;BME280;10170;42.502;26.526;2023-05-23T03:07:31;99248.50;;;13.90;100.00
20019;BME280;10170;42.502;26.526;2023-05-23T03:09:59;99251.25;;;13.95;100.00
20019;BME280;10170;42.502;26.526;2023-05-23T03:12:29;99252.56;;;13.92;100.00
20019;BME280;10170;42.502;26.526;2023-05-23T03:14:55;99250.00;;;13.97;100.00
20019;BME280;10170;42.502;26.526;2023-05-23T03:17:24;99259.06;;;13.96;100.00
20019;BME280;10170;42.502;26.526;2023-05-23T03:19:51;99267.44;;;13.88;100.00
20019;BME280;10170;42.502;26.526;2023-05-23T03:22:18;99270.69;;;13.90;100.00
20019;BME280;10170;42.502;26.526;2023-05-23T03:24:44;99257.00;;;13.75;100.00
20019;BME280;10170;42.502;26.526;2023-05-23T03:27:11;99257.69;;;13.82;100.00
20019;BME280;10170;42.502;26.526;2023-05-23T03:29:38;99265.59;;;13.89;100.00
20019;BME280;10170;42.502;26.526;2023-05-23T03:32:05;99264.88;;;13.93;100.00
20019;BME280;10170;42.502;26.526;2023-05-23T03:34:32;99255.72;;;13.89;100.00
20019;BME280;10170;42.502;26.526;2023-05-23T03:36:59;99268.50;;;13.87;100.00
20019;BME280;10170;42.502;26.526;2023-05-23T03:39:26;99257.81;;;13.75;100.00
20019;BME280;10170;42.502;26.526;2023-05-23T03:41:52;99268.06;;;13.67;100.00
20019;BME280;10170;42.502;26.526;2023-05-23T03:44:19;99265.88;;;13.64;100.00
20019;BME280;10170;42.502;26.526;2023-05-23T03:46:46;99264.47;;;13.61;100.00
20019;BME280;10170;42.502;26.526;2023-05-23T03:49:13;99267.34;;;13.71;100.00
20019;BME280;10170;42.502;26.526;2023-05-23T03:51:40;99261.22;;;13.71;100.00
20019;BME280;10170;42.502;26.526;2023-05-23T03:54:07;99267.94;;;13.85;100.00
20019;BME280;10170;42.502;26.526;2023-05-23T03:56:34;99272.97;;;13.98;100.00
20019;BME280;10170;42.502;26.526;2023-05-23T03:59:00;99269.47;;;14.09;100.00
20019;BME280;10170;42.502;26.526;2023-05-23T04:01:27;99263.44;;;14.02;100.00
20019;BME280;10170;42.502;26.526;2023-05-23T04:03:54;99255.84;;;14.11;100.00
20019;BME280;10170;42.502;26.526;2023-05-23T04:06:21;99270.38;;;14.26;100.00
20019;BME280;10170;42.502;26.526;2023-05-23T04:08:48;99274.31;;;14.35;100.00
20019;BME280;10170;42.502;26.526;2023-05-23T04:11:15;99280.50;;;14.52;100.00
20019;BME280;10170;42.502;26.526;2023-05-23T04:13:42;99286.94;;;14.68;100.00
20019;BME280;10170;42.502;26.526;2023-05-23T04:16:09;99274.38;;;14.68;100.00
20019;BME280;10170;42.502;26.526;2023-05-23T04:18:36;99291.50;;;14.84;100.00
20019;BME280;10170;42.502;26.526;2023-05-23T04:21:05;99291.59;;;14.89;100.00
20019;BME280;10170;42.502;26.526;2023-05-23T04:23:31;99286.69;;;14.86;100.00
20019;BME280;10170;42.502;26.526;2023-05-23T04:25:58;99290.75;;;14.55;100.00
20019;BME280;10170;42.502;26.526;2023-05-23T04:28:26;99282.13;;;14.53;100.00
20019;BME280;10170;42.502;26.526;2023-05-23T04:30:53;99289.44;;;14.58;100.00
20019;BME280;10170;42.502;26.526;2023-05-23T04:33:21;99287.63;;;14.47;100.00
20019;BME280;10170;42.502;26.526;2023-05-23T04:35:48;99293.41;;;14.55;100.00
20019;BME280;10170;42.502;26.526;2023-05-23T04:38:16;99291.63;;;14.61;100.00
20019;BME280;10170;42.502;26.526;2023-05-23T04:40:43;99285.84;;;14.52;100.00
20019;BME280;10170;42.502;26.526;2023-05-23T04:43:10;99277.97;;;14.46;100.00
20019;BME280;10170;42.502;26.526;2023-05-23T04:45:39;99292.69;;;14.60;100.00
20019;BME280;10170;42.502;26.526;2023-05-23T04:48:07;99292.38;;;14.73;100.00
20019;BME280;10170;42.502;26.526;2023-05-23T04:50:34;99288.97;;;14.77;100.00
20019;BME280;10170;42.502;26.526;2023-05-23T04:53:03;99292.88;;;14.87;100.00
20019;BME280;10170;42.502;26.526;2023-05-23T04:55:30;99279.19;;;15.00;100.00
20019;BME280;10170;42.502;26.526;2023-05-23T04:57:57;99301.00;;;15.25;100.00
20019;BME280;10170;42.502;26.526;2023-05-23T05:00:24;99290.94;;;15.32;100.00
20019;BME280;10170;42.502;26.526;2023-05-23T05:02:51;99287.22;;;15.49;100.00
20019;BME280;10170;42.502;26.526;2023-05-23T05:05:18;99298.72;;;15.66;100.00
20019;BME280;10170;42.502;26.526;2023-05-23T05:07:44;99301.22;;;15.73;100.00
20019;BME280;10170;42.502;26.526;2023-05-23T05:10:11;99300.00;;;15.80;100.00
20019;BME280;10170;42.502;26.526;2023-05-23T05:12:43;99304.66;;;15.90;100.00
20019;BME280;10170;42.502;26.526;2023-05-23T05:15:12;99299.75;;;16.04;100.00
20019;BME280;10170;42.502;26.526;2023-05-23T05:17:39;99304.25;;;16.20;100.00
20019;BME280;10170;42.502;26.526;2023-05-23T05:20:06;99306.03;;;16.36;100.00
20019;BME280;10170;42.502;26.526;2023-05-23T05:22:34;99314.53;;;16.49;100.00
20019;BME280;10170;42.502;26.526;2023-05-23T05:25:02;99326.38;;;16.53;100.00
20019;BME280;10170;42.502;26.526;2023-05-23T05:27:35;99329.94;;;16.85;100.00
20019;BME280;10170;42.502;26.526;2023-05-23T05:30:07;99333.84;;;17.00;100.00
20019;BME280;10170;42.502;26.526;2023-05-23T05:32:34;99337.28;;;16.95;100.00
20019;BME280;10170;42.502;26.526;2023-05-23T05:35:02;99350.06;;;17.10;100.00
20019;BME280;10170;42.502;26.526;2023-05-23T05:37:29;99349.28;;;17.14;100.00
20019;BME280;10170;42.502;26.526;2023-05-23T05:39:56;99331.97;;;17.32;100.00
20019;BME280;10170;42.502;26.526;2023-05-23T05:42:24;99352.34;;;17.54;100.00
20019;BME280;10170;42.502;26.526;2023-05-23T05:44:51;99362.94;;;17.71;100.00
20019;BME280;10170;42.502;26.526;2023-05-23T05:47:18;99362.31;;;17.27;100.00
20019;BME280;10170;42.502;26.526;2023-05-23T05:49:44;99367.34;;;17.19;100.00
20019;BME280;10170;42.502;26.526;2023-05-23T05:52:11;99357.03;;;17.11;100.00
20019;BME280;10170;42.502;26.526;2023-05-23T05:54:38;99353.22;;;17.33;100.00
20019;BME280;10170;42.502;26.526;2023-05-23T05:57:06;99355.16;;;17.43;100.00
20019;BME280;10170;42.502;26.526;2023-05-23T05:59:33;99348.63;;;17.34;100.00
20019;BME280;10170;42.502;26.526;2023-05-23T06:01:59;99348.31;;;17.57;100.00
20019;BME280;10170;42.502;26.526;2023-05-23T06:04:26;99348.44;;;17.77;100.00
20019;BME280;10170;42.502;26.526;2023-05-23T06:06:53;99345.97;;;18.12;100.00
20019;BME280;10170;42.502;26.526;2023-05-23T06:09:20;99349.28;;;18.34;100.00
20019;BME280;10170;42.502;26.526;2023-05-23T06:11:47;99364.72;;;18.54;100.00
20019;BME280;10170;42.502;26.526;2023-05-23T06:14:14;99356.44;;;18.60;100.00
20019;BME280;10170;42.502;26.526;2023-05-23T06:16:41;99361.53;;;18.57;100.00
20019;BME280;10170;42.502;26.526;2023-05-23T06:19:08;99367.28;;;18.85;100.00
20019;BME280;10170;42.502;26.526;2023-05-23T06:21:35;99371.56;;;18.86;100.00
20019;BME280;10170;42.502;26.526;2023-05-23T06:24:01;99370.00;;;19.11;100.00
20019;BME280;10170;42.502;26.526;2023-05-23T06:26:28;99357.00;;;18.82;100.00
20019;BME280;10170;42.502;26.526;2023-05-23T06:28:55;99373.81;;;19.40;100.00
20019;BME280;10170;42.502;26.526;2023-05-23T06:31:22;99372.75;;;19.66;100.00
20019;BME280;10170;42.502;26.526;2023-05-23T06:33:49;99369.47;;;19.94;100.00
20019;BME280;10170;42.502;26.526;2023-05-23T06:36:16;99380.94;;;20.45;100.00
20019;BME280;10170;42.502;26.526;2023-05-23T06:38:43;99376.59;;;20.97;100.00
20019;BME280;10170;42.502;26.526;2023-05-23T06:41:09;99366.38;;;21.33;100.00
20019;BME280;10170;42.502;26.526;2023-05-23T06:43:36;99389.41;;;21.64;100.00
20019;BME280;10170;42.502;26.526;2023-05-23T06:46:03;99396.78;;;22.40;100.00
20019;BME280;10170;42.502;26.526;2023-05-23T06:48:30;99389.00;;;22.33;100.00
20019;BME280;10170;42.502;26.526;2023-05-23T06:50:57;99393.47;;;22.90;100.00
20019;BME280;10170;42.502;26.526;2023-05-23T06:53:24;99401.75;;;22.80;100.00
20019;BME280;10170;42.502;26.526;2023-05-23T06:55:51;99407.41;;;21.84;100.00
20019;BME280;10170;42.502;26.526;2023-05-23T06:58:17;99402.34;;;21.67;100.00
20019;BME280;10170;42.502;26.526;2023-05-23T07:00:44;99411.66;;;21.18;100.00
20019;BME280;10170;42.502;26.526;2023-05-23T07:03:11;99403.78;;;20.77;100.00
20019;BME280;10170;42.502;26.526;2023-05-23T07:05:38;99400.94;;;20.97;100.00
20019;BME280;10170;42.502;26.526;2023-05-23T07:08:06;99393.69;;;20.93;100.00
20019;BME280;10170;42.502;26.526;2023-05-23T07:10:36;99393.47;;;20.84;100.00
20019;BME280;10170;42.502;26.526;2023-05-23T07:13:04;99390.66;;;21.05;100.00
20019;BME280;10170;42.502;26.526;2023-05-23T07:15:31;99392.56;;;21.43;100.00
20019;BME280;10170;42.502;26.526;2023-05-23T07:17:58;99394.16;;;21.49;100.00
20019;BME280;10170;42.502;26.526;2023-05-23T07:20:25;99389.47;;;20.67;100.00
20019;BME280;10170;42.502;26.526;2023-05-23T07:22:52;99397.63;;;20.62;100.00
20019;BME280;10170;42.502;26.526;2023-05-23T07:25:18;99390.41;;;21.01;100.00
20019;BME280;10170;42.502;26.526;2023-05-23T07:27:45;99393.97;;;21.69;100.00
20019;BME280;10170;42.502;26.526;2023-05-23T07:30:12;99389.97;;;21.95;100.00
20019;BME280;10170;42.502;26.526;2023-05-23T07:32:39;99391.88;;;22.18;100.00
20019;BME280;10170;42.502;26.526;2023-05-23T07:35:07;99379.72;;;22.39;100.00
20019;BME280;10170;42.502;26.526;2023-05-23T07:37:33;99382.31;;;22.26;100.00
20019;BME280;10170;42.502;26.526;2023-05-23T07:40:00;99383.81;;;22.13;100.00
20019;BME280;10170;42.502;26.526;2023-05-23T07:42:27;99387.44;;;22.27;100.00
20019;BME280;10170;42.502;26.526;2023-05-23T07:44:54;99390.16;;;21.70;100.00
20019;BME280;10170;42.502;26.526;2023-05-23T07:47:20;99384.63;;;21.18;100.00
20019;BME280;10170;42.502;26.526;2023-05-23T07:49:47;99392.47;;;21.19;100.00
20019;BME280;10170;42.502;26.526;2023-05-23T07:52:14;99395.97;;;21.20;100.00
20019;BME280;10170;42.502;26.526;2023-05-23T07:54:41;99400.66;;;21.09;100.00
20019;BME280;10170;42.502;26.526;2023-05-23T07:57:08;99409.63;;;21.00;100.00
20019;BME280;10170;42.502;26.526;2023-05-23T07:59:35;99389.34;;;20.92;100.00
20019;BME280;10170;42.502;26.526;2023-05-23T08:02:02;99401.28;;;20.86;100.00
20019;BME280;10170;42.502;26.526;2023-05-23T08:04:29;99403.72;;;20.87;100.00
20019;BME280;10170;42.502;26.526;2023-05-23T08:06:56;99391.97;;;21.12;100.00
20019;BME280;10170;42.502;26.526;2023-05-23T08:09:31;99390.00;;;21.23;100.00
20019;BME280;10170;42.502;26.526;2023-05-23T08:11:57;99393.91;;;21.45;100.00
20019;BME280;10170;42.502;26.526;2023-05-23T08:14:26;99385.63;;;21.65;100.00
20019;BME280;10170;42.502;26.526;2023-05-23T08:17:13;99377.66;;;21.79;100.00
20019;BME280;10170;42.502;26.526;2023-05-23T08:19:39;99383.66;;;22.05;100.00
20019;BME280;10170;42.502;26.526;2023-05-23T08:22:07;99387.31;;;22.37;100.00
20019;BME280;10170;42.502;26.526;2023-05-23T08:24:34;99394.81;;;22.45;100.00
20019;BME280;10170;42.502;26.526;2023-05-23T08:27:01;99383.78;;;22.65;100.00
20019;BME280;10170;42.502;26.526;2023-05-23T08:29:27;99383.03;;;22.78;100.00
20019;BME280;10170;42.502;26.526;2023-05-23T08:31:54;99383.19;;;22.68;100.00
20019;BME280;10170;42.502;26.526;2023-05-23T08:34:21;99395.47;;;23.03;100.00
20019;BME280;10170;42.502;26.526;2023-05-23T08:36:48;99385.97;;;22.82;100.00
20019;BME280;10170;42.502;26.526;2023-05-23T08:39:14;99393.72;;;22.70;100.00
20019;BME280;10170;42.502;26.526;2023-05-23T08:41:41;99379.97;;;22.19;100.00
20019;BME280;10170;42.502;26.526;2023-05-23T08:44:08;99392.88;;;22.27;100.00
20019;BME280;10170;42.502;26.526;2023-05-23T08:46:43;99390.09;;;22.32;100.00
20019;BME280;10170;42.502;26.526;2023-05-23T08:49:12;99387.00;;;22.44;100.00
20019;BME280;10170;42.502;26.526;2023-05-23T08:51:42;99383.19;;;22.68;100.00
20019;BME280;10170;42.502;26.526;2023-05-23T08:54:10;99382.09;;;22.69;100.00
20019;BME280;10170;42.502;26.526;2023-05-23T08:56:39;99393.28;;;22.63;100.00
20019;BME280;10170;42.502;26.526;2023-05-23T08:59:08;99390.94;;;22.75;100.00
20019;BME280;10170;42.502;26.526;2023-05-23T09:01:36;99392.00;;;22.97;100.00
20019;BME280;10170;42.502;26.526;2023-05-23T09:04:05;99393.09;;;23.15;99.20
20019;BME280;10170;42.502;26.526;2023-05-23T09:06:33;99392.88;;;22.93;100.00
20019;BME280;10170;42.502;26.526;2023-05-23T09:09:00;99389.63;;;22.91;100.00
20019;BME280;10170;42.502;26.526;2023-05-23T09:11:27;99395.81;;;22.78;100.00
20019;BME280;10170;42.502;26.526;2023-05-23T09:13:54;99389.44;;;23.06;100.00
20019;BME280;10170;42.502;26.526;2023-05-23T09:16:21;99395.00;;;22.77;100.00
20019;BME280;10170;42.502;26.526;2023-05-23T09:18:48;99390.16;;;22.74;100.00
20019;BME280;10170;42.502;26.526;2023-05-23T09:21:15;99390.13;;;22.98;100.00
20019;BME280;10170;42.502;26.526;2023-05-23T09:23:42;99391.84;;;23.08;100.00
20019;BME280;10170;42.502;26.526;2023-05-23T09:26:10;99386.59;;;23.35;100.00
20019;BME280;10170;42.502;26.526;2023-05-23T09:28:38;99390.84;;;23.41;100.00
20019;BME280;10170;42.502;26.526;2023-05-23T09:31:06;99396.16;;;23.27;100.00
20019;BME280;10170;42.502;26.526;2023-05-23T09:33:47;99395.94;;;23.24;100.00
20019;BME280;10170;42.502;26.526;2023-05-23T09:36:14;99393.06;;;24.17;94.95
20019;BME280;10170;42.502;26.526;2023-05-23T09:38:46;99387.25;;;24.50;87.42
20019;BME280;10170;42.502;26.526;2023-05-23T09:41:14;99386.81;;;24.57;81.36
20019;BME280;10170;42.502;26.526;2023-05-23T09:43:51;99389.75;;;24.74;80.27
20019;BME280;10170;42.502;26.526;2023-05-23T09:46:19;99392.19;;;24.48;85.46
20019;BME280;10170;42.502;26.526;2023-05-23T09:48:50;99401.63;;;24.24;82.85
20019;BME280;10170;42.502;26.526;2023-05-23T09:51:22;99399.41;;;23.80;86.09
20019;BME280;10170;42.502;26.526;2023-05-23T09:53:49;99393.03;;;23.20;87.91
20019;BME280;10170;42.502;26.526;2023-05-23T09:56:16;99390.31;;;22.83;92.34
20019;BME280;10170;42.502;26.526;2023-05-23T09:58:46;99397.53;;;22.45;93.92
20019;BME280;10170;42.502;26.526;2023-05-23T10:01:13;99389.63;;;22.72;97.25
20019;BME280;10170;42.502;26.526;2023-05-23T10:03:51;99392.56;;;22.94;100.00
20019;BME280;10170;42.502;26.526;2023-05-23T10:09:01;99384.38;;;23.37;97.12
20019;BME280;10170;42.502;26.526;2023-05-23T10:14:10;99376.75;;;22.83;95.94
20019;BME280;10170;42.502;26.526;2023-05-23T10:17:06;99392.19;;;22.64;95.40
20019;BME280;10170;42.502;26.526;2023-05-23T10:22:15;99397.53;;;22.22;100.00
20019;BME280;10170;42.502;26.526;2023-05-23T10:24:44;99397.47;;;22.27;100.00
20019;BME280;10170;42.502;26.526;2023-05-23T10:27:11;99395.47;;;22.14;100.00
20019;BME280;10170;42.502;26.526;2023-05-23T10:29:38;99393.50;;;22.19;100.00
20019;BME280;10170;42.502;26.526;2023-05-23T10:32:06;99395.63;;;21.98;100.00
20019;BME280;10170;42.502;26.526;2023-05-23T10:35:01;99397.78;;;21.96;100.00
20019;BME280;10170;42.502;26.526;2023-05-23T10:37:39;99404.72;;;22.08;100.00
20019;BME280;10170;42.502;26.526;2023-05-23T10:40:30;99406.06;;;21.81;100.00
20019;BME280;10170;42.502;26.526;2023-05-23T10:43:04;99396.09;;;21.72;100.00
20019;BME280;10170;42.502;26.526;2023-05-23T10:45:40;99389.59;;;21.73;100.00
20019;BME280;10170;42.502;26.526;2023-05-23T10:51:06;99384.03;;;21.93;100.00
20019;BME280;10170;42.502;26.526;2023-05-23T10:53:35;99387.44;;;22.51;100.00
20019;BME280;10170;42.502;26.526;2023-05-23T10:56:07;99381.84;;;22.66;100.00
20019;BME280;10170;42.502;26.526;2023-05-23T10:58:39;99385.34;;;22.43;100.00
20019;BME280;10170;42.502;26.526;2023-05-23T11:01:14;99382.13;;;22.64;100.00
20019;BME280;10170;42.502;26.526;2023-05-23T11:06:40;99389.69;;;22.20;100.00
20019;BME280;10170;42.502;26.526;2023-05-23T11:09:16;99386.16;;;22.20;100.00
20019;BME280;10170;42.502;26.526;2023-05-23T11:19:39;99375.28;;;22.25;100.00
20019;BME280;10170;42.502;26.526;2023-05-23T11:22:09;99368.41;;;22.32;100.00
20019;BME280;10170;42.502;26.526;2023-05-23T11:27:30;99379.31;;;22.27;100.00
20019;BME280;10170;42.502;26.526;2023-05-23T11:30:00;99375.50;;;22.28;100.00
20019;BME280;10170;42.502;26.526;2023-05-23T11:32:28;99378.50;;;22.27;100.00
20019;BME280;10170;42.502;26.526;2023-05-23T11:35:03;99378.28;;;22.23;100.00
20019;BME280;10170;42.502;26.526;2023-05-23T11:37:30;99377.28;;;22.14;100.00
20019;BME280;10170;42.502;26.526;2023-05-23T11:39:58;99367.72;;;21.98;100.00
20019;BME280;10170;42.502;26.526;2023-05-23T11:42:24;99361.34;;;22.13;100.00
20019;BME280;10170;42.502;26.526;2023-05-23T11:44:51;99370.88;;;22.94;100.00
20019;BME280;10170;42.502;26.526;2023-05-23T11:47:19;99383.97;;;23.30;100.00
20019;BME280;10170;42.502;26.526;2023-05-23T11:49:46;99374.31;;;23.00;100.00
20019;BME280;10170;42.502;26.526;2023-05-23T11:52:13;99360.19;;;22.84;100.00
20019;BME280;10170;42.502;26.526;2023-05-23T11:54:41;99356.78;;;22.32;100.00
20019;BME280;10170;42.502;26.526;2023-05-23T11:57:09;99363.34;;;22.73;100.00
20019;BME280;10170;42.502;26.526;2023-05-23T11:59:37;99367.06;;;23.33;100.00
20019;BME280;10170;42.502;26.526;2023-05-23T12:02:05;99362.28;;;23.75;100.00
20019;BME280;10170;42.502;26.526;2023-05-23T12:04:36;99363.91;;;23.76;100.00
20019;BME280;10170;42.502;26.526;2023-05-23T12:07:06;99360.84;;;24.10;100.00
20019;BME280;10170;42.502;26.526;2023-05-23T12:09:43;99369.72;;;24.29;95.28
20019;BME280;10170;42.502;26.526;2023-05-23T12:12:11;99366.09;;;24.47;92.60
20019;BME280;10170;42.502;26.526;2023-05-23T12:14:38;99362.84;;;24.45;94.53
20019;BME280;10170;42.502;26.526;2023-05-23T12:17:11;99363.97;;;24.44;100.00
20019;BME280;10170;42.502;26.526;2023-05-23T12:20:06;99367.59;;;24.26;100.00
20019;BME280;10170;42.502;26.526;2023-05-23T12:22:34;99367.63;;;24.13;100.00
20019;BME280;10170;42.502;26.526;2023-05-23T12:25:00;99365.19;;;24.38;100.00
20019;BME280;10170;42.502;26.526;2023-05-23T12:27:29;99367.50;;;24.18;100.00
20019;BME280;10170;42.502;26.526;2023-05-23T12:30:13;99356.53;;;24.77;88.36
20019;BME280;10170;42.502;26.526;2023-05-23T12:32:41;99359.41;;;24.67;85.73
20019;BME280;10170;42.502;26.526;2023-05-23T12:35:13;99351.34;;;25.47;80.42
20019;BME280;10170;42.502;26.526;2023-05-23T12:37:44;99348.69;;;26.08;75.14
20019;BME280;10170;42.502;26.526;2023-05-23T12:40:15;99343.75;;;26.75;69.34
20019;BME280;10170;42.502;26.526;2023-05-23T12:42:49;99347.00;;;26.38;71.31
20019;BME280;10170;42.502;26.526;2023-05-23T12:45:21;99350.25;;;26.57;68.62
20019;BME280;10170;42.502;26.526;2023-05-23T12:47:48;99342.09;;;26.09;69.98
20019;BME280;10170;42.502;26.526;2023-05-23T12:50:19;99351.69;;;25.10;71.04
20019;BME280;10170;42.502;26.526;2023-05-23T12:52:46;99347.88;;;24.34;80.61
20019;BME280;10170;42.502;26.526;2023-05-23T12:55:13;99345.41;;;23.92;83.47
20019;BME280;10170;42.502;26.526;2023-05-23T12:57:40;99354.13;;;23.62;94.76
20019;BME280;10170;42.502;26.526;2023-05-23T13:00:07;99346.59;;;23.22;100.00
20019;BME280;10170;42.502;26.526;2023-05-23T13:02:34;99352.78;;;23.59;100.00
20019;BME280;10170;42.502;26.526;2023-05-23T13:05:01;99342.72;;;23.28;100.00
20019;BME280;10170;42.502;26.526;2023-05-23T13:07:28;99342.56;;;23.38;100.00
20019;BME280;10170;42.502;26.526;2023-05-23T13:09:55;99350.69;;;23.56;100.00
20019;BME280;10170;42.502;26.526;2023-05-23T13:12:22;99346.00;;;23.43;100.00
20019;BME280;10170;42.502;26.526;2023-05-23T13:14:49;99352.75;;;23.91;100.00
20019;BME280;10170;42.502;26.526;2023-05-23T13:17:16;99350.88;;;24.33;85.60
20019;BME280;10170;42.502;26.526;2023-05-23T13:19:43;99332.44;;;24.70;76.40
20019;BME280;10170;42.502;26.526;2023-05-23T13:22:10;99329.16;;;25.62;69.32
20019;BME280;10170;42.502;26.526;2023-05-23T13:24:38;99332.34;;;25.11;65.53